Laurence Harbor, New Jersey
Current Conditions -  °F | °C
As of 9:35 PM on Wednesday 22 Oct 2014 (Local Time) from KLDJ Reporting Station
Light Rain Light Rain  
Wind Chill: 56°   Ceiling: 2800
Heat Index: 56°   Visibility: 7mi
Dew Point: 52°   Wind: 14mph
Humidity: 87%   Direction: 360°N
Pressure: 29.79"   Gusts: 24mph
Location:  40.4806°N, 74.2888°W
Report Text: KLDJ 230135Z AUTO 36012G21KT 7SM -RA SCT019 BKN028 OVC043 13/11 A2979 RMK AO2 LTG DSNT E P0003 T01320110
Loading
Personal Weather Stations






























Interactive Weather Map
Tropical Storm Tracking
New forecast layout! Learn more

10-Day Weather Forecast

Advertisements
Track Severe Weather on mobile